Time;durP1;ratioP1;P1;durP2;ratioP2;P2;SDS_P1;SDS_P2;PMS_P1;PMS_P2;Temp;Humidity;BMP_temperature;BMP_pressure;BME280_temperature;BME280_humidity;BME280_pressure;Samples;Min_cycle;Max_cycle;Signal;HPM_P1;HPM_P2
2021/09/01 00:00:41;;;;;;;31.67;12.50;;;;;;;21.24;56.53;98236.91;4988186;28;20152;-75
2021/09/01 00:03:14;;;;;;;26.05;12.07;;;;;;;21.46;56.30;98253.75;5002096;28;20049;-76
2021/09/01 00:05:43;;;;;;;26.45;12.23;;;;;;;21.07;56.24;98205.03;5007553;28;20544;-75
2021/09/01 00:08:16;;;;;;;20.33;10.07;;;;;;;21.10;55.67;98206.22;5024948;28;20049;-74
2021/09/01 00:13:40;;;;;;;21.40;10.35;;;;;;;21.06;55.81;98202.63;5023189;28;20126;-75
2021/09/01 00:16:30;;;;;;;25.23;11.05;;;;;;;21.27;56.17;98238.13;4984248;28;20045;-75
2021/09/01 00:19:05;;;;;;;26.25;10.93;;;;;;;21.45;56.41;98257.69;4991856;28;20073;-75
2021/09/01 00:21:42;;;;;;;31.42;11.90;;;;;;;21.05;56.72;98198.25;5008972;28;20064;-76
2021/09/01 00:24:16;;;;;;;32.70;12.20;;;;;;;21.02;57.01;98193.47;5007813;28;20052;-75
2021/09/01 00:26:51;;;;;;;24.17;12.07;;;;;;;21.41;57.83;98250.53;4997823;28;20045;-75
2021/09/01 00:29:30;;;;;;;27.50;11.75;;;;;;;20.94;57.36;98173.97;5025560;28;20528;-76
2021/09/01 00:32:09;;;;;;;23.17;10.82;;;;;;;21.05;56.77;98193.50;4981894;28;20049;-75
2021/09/01 00:34:39;;;;;;;26.10;10.60;;;;;;;21.31;56.87;98227.84;5005805;28;20049;-76
2021/09/01 00:37:10;;;;;;;32.60;11.60;;;;;;;21.01;56.83;98186.34;4976992;28;20053;-76
2021/09/01 00:39:39;;;;;;;26.80;11.63;;;;;;;21.34;56.70;98224.28;5013369;28;20146;-76
2021/09/01 00:42:09;;;;;;;21.48;11.10;;;;;;;21.06;56.92;98174.84;4992223;28;20517;-76
2021/09/01 00:44:40;;;;;;;23.27;11.02;;;;;;;20.99;56.40;98172.81;5007431;28;20049;-76
2021/09/01 00:47:17;;;;;;;27.27;10.60;;;;;;;21.42;56.72;98235.47;5038579;28;20072;-76
2021/09/01 00:49:45;;;;;;;36.65;12.57;;;;;;;21.08;56.46;98203.84;4991149;28;20049;-76
2021/09/01 00:52:15;;;;;;;27.05;12.13;;;;;;;20.99;56.75;98186.69;5013174;28;20041;-76
2021/09/01 00:54:53;;;;;;;31.77;11.23;;;;;;;21.04;56.20;98199.44;5002602;28;20052;-76
2021/09/01 00:57:28;;;;;;;25.58;10.48;;;;;;;21.03;55.57;98220.06;5008197;28;20041;-76
2021/09/01 01:00:04;;;;;;;24.95;10.30;;;;;;;21.01;55.35;98212.13;5003435;28;20045;-75
2021/09/01 01:02:41;;;;;;;33.40;10.82;;;;;;;21.00;55.51;98218.84;4992480;28;20052;-76
2021/09/01 01:05:14;;;;;;;23.55;11.63;;;;;;;20.94;56.13;98190.63;5024247;28;20127;-76
2021/09/01 01:07:43;;;;;;;31.10;11.57;;;;;;;20.78;56.75;98188.09;4990747;28;20536;-76
2021/09/01 01:10:15;;;;;;;27.88;11.32;;;;;;;20.48;57.23;98146.56;5000147;28;20045;-75
2021/09/01 01:12:45;;;;;;;31.10;11.73;;;;;;;20.62;57.29;98157.78;4981906;28;20511;-76
2021/09/01 01:15:17;;;;;;;31.70;12.32;;;;;;;20.86;57.64;98196.50;4982974;28;20057;-76
2021/09/01 01:17:48;;;;;;;23.90;12.07;;;;;;;20.65;57.63;98162.56;5002783;28;20050;-76
2021/09/01 01:20:28;;;;;;;23.80;11.15;;;;;;;20.62;57.47;98148.69;4991821;28;20069;-76
2021/09/01 01:23:01;;;;;;;35.40;12.23;;;;;;;20.51;57.46;98124.38;4984181;28;20386;-77
2021/09/01 01:25:38;;;;;;;28.08;11.90;;;;;;;20.69;57.62;98143.19;5006299;28;20047;-76
2021/09/01 01:28:11;;;;;;;24.85;12.05;;;;;;;20.80;56.96;98141.31;5007335;28;20115;-77
2021/09/01 01:30:42;;;;;;;32.22;11.82;;;;;;;20.68;56.80;98119.38;4999018;28;20134;-77
2021/09/01 01:33:15;;;;;;;36.40;13.40;;;;;;;20.59;57.42;98103.03;4976771;28;20045;-74
2021/09/01 01:35:49;;;;;;;29.83;13.20;;;;;;;20.99;57.81;98174.78;5005273;28;20096;-76
2021/09/01 01:38:38;;;;;;;34.45;13.32;;;;;;;20.34;58.38;98086.97;5007222;28;20069;-76
2021/09/01 01:41:16;;;;;;;26.60;12.57;;;;;;;20.07;59.01;98077.97;5004418;28;20065;-75
2021/09/01 01:43:49;;;;;;;26.48;12.23;;;;;;;20.20;59.35;98107.06;4982041;28;20037;-77
2021/09/01 01:46:16;;;;;;;26.88;12.30;;;;;;;20.19;59.13;98104.66;4996890;28;20060;-73
2021/09/01 01:48:42;;;;;;;26.85;11.48;;;;;;;20.27;59.00;98111.88;4994050;28;20044;-73
2021/09/01 01:51:09;;;;;;;30.70;12.95;;;;;;;20.20;58.79;98095.94;5040098;28;20420;-74
2021/09/01 01:53:36;;;;;;;27.08;12.45;;;;;;;20.16;59.08;98083.22;4991119;28;20152;-74
2021/09/01 01:56:03;;;;;;;24.45;12.30;;;;;;;20.30;59.18;98113.09;4990132;28;20053;-73
2021/09/01 01:58:31;;;;;;;29.33;12.57;;;;;;;20.20;59.66;98109.81;4990685;28;20144;-73
2021/09/01 02:00:58;;;;;;;29.65;12.20;;;;;;;20.16;59.67;98095.13;5021352;28;20473;-73
2021/09/01 02:03:24;;;;;;;27.65;11.68;;;;;;;20.27;59.90;98109.09;5007614;28;20118;-75
2021/09/01 02:05:51;;;;;;;30.20;12.95;;;;;;;20.06;60.15;98084.72;5006626;28;20046;-73
2021/09/01 02:08:26;;;;;;;25.92;12.10;;;;;;;19.70;59.83;98021.31;5023188;28;20041;-72
2021/09/01 02:10:53;;;;;;;28.15;12.73;;;;;;;20.02;60.04;98056.94;5039241;28;20045;-71
2021/09/01 02:13:20;;;;;;;26.08;11.85;;;;;;;20.13;59.79;98073.66;5007698;28;20509;-74
2021/09/01 02:15:49;;;;;;;30.23;12.02;;;;;;;20.29;59.92;98084.53;5023451;28;20079;-72
2021/09/01 02:18:16;;;;;;;31.42;12.13;;;;;;;20.10;60.29;98061.38;5004364;28;20123;-71
2021/09/01 02:20:42;;;;;;;22.67;11.68;;;;;;;20.11;59.81;98070.50;5022174;28;20100;-72
2021/09/01 02:23:09;;;;;;;24.10;11.43;;;;;;;20.31;59.75;98081.41;5023448;28;20157;-74
2021/09/01 02:25:35;;;;;;;33.03;13.15;;;;;;;20.27;59.31;98065.50;5041178;28;20056;-74
2021/09/01 02:28:02;;;;;;;23.15;10.93;;;;;;;20.17;59.33;98037.66;5039971;28;20049;-74
2021/09/01 02:30:28;;;;;;;26.80;11.63;;;;;;;20.39;59.25;98069.16;5017657;28;20140;-73
2021/09/01 02:32:56;;;;;;;27.08;11.88;;;;;;;20.28;59.26;98049.66;4995618;28;20044;-74
2021/09/01 02:35:22;;;;;;;28.50;12.02;;;;;;;20.53;58.82;98076.81;5040104;28;20387;-73
2021/09/01 02:37:52;;;;;;;28.85;14.10;;;;;;;20.28;58.81;98030.22;5037328;28;20135;-72
2021/09/01 02:40:19;;;;;;;32.22;12.75;;;;;;;20.06;58.88;98004.28;5037645;28;20410;-74
2021/09/01 02:42:46;;;;;;;27.60;12.00;;;;;;;20.50;59.54;98060.91;5003868;28;20071;-75
2021/09/01 02:45:16;;;;;;;28.77;13.23;;;;;;;20.43;59.45;98044.22;5005806;28;20073;-73
2021/09/01 02:47:43;;;;;;;29.75;13.40;;;;;;;20.32;59.79;98024.72;5012724;28;20049;-74
2021/09/01 02:50:12;;;;;;;33.47;13.98;;;;;;;20.23;59.67;98034.16;5038258;28;20109;-74
2021/09/01 02:52:42;;;;;;;40.92;22.00;;;;;;;20.30;59.69;98035.41;5022726;28;20412;-74
2021/09/01 02:55:09;;;;;;;62.22;33.85;;;;;;;20.37;59.84;98032.69;5005153;28;20477;-73
2021/09/01 02:57:36;;;;;;;54.72;29.65;;;;;;;20.48;59.75;98050.22;5038625;28;20633;-74
2021/09/01 03:00:06;;;;;;;42.45;23.20;;;;;;;20.38;59.41;98032.31;5035387;28;20504;-72
2021/09/01 03:02:33;;;;;;;37.85;19.15;;;;;;;20.49;59.13;98057.38;5004249;28;20063;-74
2021/09/01 03:05:16;;;;;;;40.03;16.48;;;;;;;20.42;58.78;98042.63;5018890;28;20050;-78
2021/09/01 03:08:20;;;;;;;32.80;16.42;;;;;;;20.10;58.67;97980.13;4998429;28;20045;-79
2021/09/01 03:11:22;;;;;;;31.13;14.05;;;;;;;20.43;59.01;98027.56;4986080;28;20048;-79
2021/09/01 03:14:00;;;;;;;39.15;14.18;;;;;;;19.99;59.67;97977.28;4950441;28;20447;-79
2021/09/01 03:16:51;;;;;;;28.15;13.07;;;;;;;19.94;59.93;97977.63;4932044;28;20462;-79
2021/09/01 03:19:58;;;;;;;32.17;13.05;;;;;;;20.16;60.11;97992.47;4941398;28;20054;-79
2021/09/01 03:22:56;;;;;;;42.75;12.88;;;;;;;20.24;59.79;97994.13;4960673;28;20055;-79
2021/09/01 03:26:32;;;;;;;27.73;12.45;;;;;;;20.12;59.88;97992.44;4964150;28;20074;-79
2021/09/01 03:29:12;;;;;;;32.47;13.00;;;;;;;20.33;60.05;98032.63;4953969;28;20065;-79
2021/09/01 03:32:08;;;;;;;32.95;12.95;;;;;;;19.78;60.05;97937.06;4971830;28;20151;-81
2021/09/01 03:35:26;;;;;;;25.27;11.60;;;;;;;19.89;60.01;97959.31;4954629;28;20479;-79
2021/09/01 03:37:59;;;;;;;29.27;13.18;;;;;;;20.00;59.94;97965.00;4926175;28;20911;-76
2021/09/01 03:40:32;;;;;;;32.30;12.40;;;;;;;19.89;60.20;97951.00;4947051;28;20039;-76
2021/09/01 03:43:18;;;;;;;30.83;11.15;;;;;;;19.87;60.10;97933.16;4948086;28;20046;-77
2021/09/01 03:45:58;;;;;;;24.58;11.43;;;;;;;19.81;59.80;97922.41;4990308;28;20045;-77
2021/09/01 03:48:40;;;;;;;28.88;10.57;;;;;;;20.27;59.60;98010.00;5005075;28;20084;-77
2021/09/01 03:51:18;;;;;;;26.48;11.15;;;;;;;20.06;59.90;97969.03;5006466;28;20065;-77
2021/09/01 03:53:59;;;;;;;24.90;10.70;;;;;;;19.87;60.13;97958.09;4990399;28;20540;-77
2021/09/01 03:56:38;;;;;;;23.33;11.30;;;;;;;20.08;59.92;97974.97;5005134;28;20037;-76
2021/09/01 03:59:19;;;;;;;27.33;10.93;;;;;;;19.83;59.99;97936.69;4997968;28;20056;-76
2021/09/01 04:02:07;;;;;;;26.50;11.50;;;;;;;19.82;59.70;97925.97;4981736;28;20074;-77
2021/09/01 04:04:59;;;;;;;25.38;10.43;;;;;;;19.83;59.48;97930.38;4997139;28;20047;-77
2021/09/01 04:07:41;;;;;;;30.60;11.77;;;;;;;20.22;59.73;97990.16;5003265;28;20045;-78
2021/09/01 04:10:23;;;;;;;23.20;11.60;;;;;;;20.13;59.99;97976.59;5014336;28;20425;-78
2021/09/01 04:12:59;;;;;;;30.23;13.88;;;;;;;20.28;60.42;97996.94;4997041;28;20184;-77
2021/09/01 04:15:37;;;;;;;31.38;13.02;;;;;;;19.90;60.38;97947.06;4996163;28;20042;-77
2021/09/01 04:18:10;;;;;;;38.20;13.98;;;;;;;20.12;60.69;97992.44;5012684;28;20077;-78
2021/09/01 04:20:46;;;;;;;35.95;14.73;;;;;;;20.14;61.04;97991.25;4997155;28;20042;-78
2021/09/01 04:23:20;;;;;;;45.65;16.00;;;;;;;19.94;61.28;97967.31;4973722;28;20058;-77
2021/09/01 04:26:07;;;;;;;42.83;15.45;;;;;;;20.10;61.69;97985.69;4990957;28;20572;-78
2021/09/01 04:29:11;;;;;;;44.90;16.17;;;;;;;19.58;61.70;97921.78;4982051;28;20054;-79
2021/09/01 04:31:39;;;;;;;51.92;16.05;;;;;;;19.55;61.27;97907.53;4980197;28;20046;-78
2021/09/01 04:34:09;;;;;;;44.35;14.27;;;;;;;19.92;61.23;97968.91;4980906;28;20053;-78
2021/09/01 04:36:50;;;;;;;53.45;14.73;;;;;;;19.49;61.39;97897.16;4998056;28;20064;-78
2021/09/01 04:39:40;;;;;;;36.63;13.27;;;;;;;19.45;61.31;97905.47;5012286;28;20643;-78
2021/09/01 04:42:15;;;;;;;47.03;15.63;;;;;;;19.44;61.58;97892.78;4999497;28;20058;-78
2021/09/01 04:44:50;;;;;;;49.58;16.85;;;;;;;19.58;62.00;97922.59;5005992;28;20139;-78
2021/09/01 04:47:20;;;;;;;45.88;16.08;;;;;;;19.47;62.07;97899.53;4997074;28;20045;-78
2021/09/01 04:49:53;;;;;;;52.17;16.52;;;;;;;19.94;62.00;97970.09;4979295;28;20416;-78
2021/09/01 04:52:34;;;;;;;49.75;16.17;;;;;;;19.94;62.38;97969.31;5017579;28;20041;-78
2021/09/01 04:55:04;;;;;;;42.08;15.05;;;;;;;19.38;62.81;97897.06;4984326;28;20136;-78
2021/09/01 04:57:40;;;;;;;38.00;15.30;;;;;;;19.37;62.75;97885.22;5006298;28;20187;-78
2021/09/01 05:00:14;;;;;;;38.78;15.15;;;;;;;19.44;62.78;97903.88;4990098;28;20045;-78
2021/09/01 05:02:48;;;;;;;44.67;14.40;;;;;;;19.74;62.68;97927.09;5006567;28;20041;-77
2021/09/01 05:05:28;;;;;;;37.47;13.90;;;;;;;19.69;62.52;97908.84;4984996;28;20140;-78
2021/09/01 05:08:01;;;;;;;35.00;14.10;;;;;;;19.51;62.43;97892.84;5015464;28;20600;-77
2021/09/01 05:10:44;;;;;;;33.35;13.07;;;;;;;19.54;61.80;97885.75;5007722;28;20612;-78
2021/09/01 05:13:30;;;;;;;38.03;14.82;;;;;;;19.48;62.38;97876.19;5007347;28;20052;-78
2021/09/01 05:16:10;;;;;;;37.92;15.88;;;;;;;19.50;61.96;97862.72;5024252;28;20067;-77
2021/09/01 05:18:58;;;;;;;46.17;15.30;;;;;;;19.36;62.33;97844.81;4995062;28;20083;-78
2021/09/01 05:21:35;;;;;;;43.85;14.43;;;;;;;19.67;61.95;97880.72;4980100;28;20416;-78
2021/09/01 05:24:35;;;;;;;45.53;13.93;;;;;;;19.82;62.01;97907.38;4991037;28;20042;-77
2021/09/01 05:27:19;;;;;;;47.38;13.52;;;;;;;19.87;61.84;97902.66;5022817;28;20045;-78
2021/09/01 05:30:09;;;;;;;51.05;14.10;;;;;;;19.63;61.89;97875.13;4981778;28;20045;-78
2021/09/01 05:32:54;;;;;;;37.45;12.23;;;;;;;19.85;61.82;97894.72;5000516;28;20142;-78
2021/09/01 05:35:24;;;;;;;26.02;11.13;;;;;;;19.58;61.83;97875.50;5021716;28;20135;-77
2021/09/01 05:37:56;;;;;;;40.95;11.13;;;;;;;19.56;61.76;97869.53;5007970;28;20049;-78
2021/09/01 05:40:29;;;;;;;22.85;11.18;;;;;;;19.58;62.03;97878.25;4997746;28;20076;-79
2021/09/01 05:43:01;;;;;;;26.77;10.65;;;;;;;19.27;62.10;97841.56;5023677;28;20545;-79
2021/09/01 05:45:43;;;;;;;25.35;11.02;;;;;;;19.60;62.49;97898.06;4990673;28;20057;-79
2021/09/01 05:48:15;;;;;;;26.15;11.07;;;;;;;19.37;62.69;97865.81;5006705;28;20501;-79
2021/09/01 05:50:55;;;;;;;30.40;11.77;;;;;;;19.48;62.57;97881.72;5006272;28;20053;-79
2021/09/01 05:53:31;;;;;;;26.23;12.73;;;;;;;19.49;62.82;97875.00;4992205;28;20408;-78
2021/09/01 05:56:11;;;;;;;24.20;11.30;;;;;;;19.62;63.40;97892.16;4983868;28;20516;-78
2021/09/01 05:58:43;;;;;;;22.15;11.07;;;;;;;19.20;63.43;97833.16;4982082;28;20569;-79
2021/09/01 06:01:25;;;;;;;24.45;11.38;;;;;;;19.05;63.59;97804.56;4991342;28;20046;-79
2021/09/01 06:04:01;;;;;;;29.80;11.93;;;;;;;19.51;63.26;97873.44;5021390;28;20056;-79
2021/09/01 06:06:40;;;;;;;26.80;11.13;;;;;;;19.67;63.42;97884.28;4997952;28;20144;-78
2021/09/01 06:09:12;;;;;;;23.23;11.87;;;;;;;19.23;63.21;97815.81;4991299;28;20041;-75
2021/09/01 06:11:45;;;;;;;30.42;11.32;;;;;;;19.45;63.56;97846.47;5007249;28;20587;-74
2021/09/01 06:14:12;;;;;;;30.38;11.93;;;;;;;19.33;63.18;97801.25;4990152;28;20056;-75
2021/09/01 06:16:45;;;;;;;25.55;10.82;;;;;;;19.49;62.56;97823.16;5019833;28;20046;-75
2021/09/01 06:19:20;;;;;;;22.20;11.80;;;;;;;19.40;62.50;97792.19;4989297;28;20072;-75
2021/09/01 06:21:59;;;;;;;22.17;11.73;;;;;;;19.46;62.37;97795.41;4996579;28;20052;-74
2021/09/01 06:24:26;;;;;;;29.10;11.77;;;;;;;19.49;62.50;97781.59;5007800;28;20076;-74
2021/09/01 06:26:53;;;;;;;;;;;;;;;20.00;62.21;97851.28;4990912;28;20175;-75
2021/09/01 06:29:41;;;;;;;25.75;11.95;;;;;;;19.76;61.96;97805.53;4992144;28;20070;-75
2021/09/01 06:32:17;;;;;;;31.27;11.60;;;;;;;20.03;61.84;97846.94;5023757;28;20060;-75
2021/09/01 06:34:48;;;;;;;;;;;;;;;20.04;61.95;97840.22;4991319;28;20049;-74
2021/09/01 06:37:18;;;;;;;33.30;11.70;;;;;;;19.52;61.93;97769.72;5006994;28;19925;-74
2021/09/01 06:39:53;;;;;;;24.38;11.23;;;;;;;19.62;61.92;97784.84;5010964;28;20055;-75
2021/09/01 06:45:46;;;;;;;33.70;11.85;;;;;;;19.66;62.31;97782.09;5002072;28;20056;-76
2021/09/01 06:48:15;;;;;;;29.58;12.88;;;;;;;19.84;62.48;97821.06;5023448;28;20159;-72
2021/09/01 06:50:44;;;;;;;27.77;14.70;;;;;;;19.74;62.41;97797.59;4990326;28;20428;-72
2021/09/01 06:53:20;;;;;;;32.40;14.88;;;;;;;19.80;62.75;97809.13;5023956;28;20049;-73
2021/09/01 06:55:49;;;;;;;28.60;12.05;;;;;;;19.60;62.24;97772.56;5024471;28;20061;-73
2021/09/01 06:58:20;;;;;;;27.65;11.80;;;;;;;19.80;61.72;97809.94;5006753;28;20131;-73
2021/09/01 07:00:47;;;;;;;26.63;11.43;;;;;;;19.78;61.23;97787.34;5021165;28;20049;-73
2021/09/01 07:03:15;;;;;;;25.30;11.37;;;;;;;19.95;61.00;97804.50;5039512;28;20033;-73
2021/09/01 07:05:42;;;;;;;29.13;11.70;;;;;;;19.76;61.11;97781.41;5021465;28;20307;-72
2021/09/01 07:08:13;;;;;;;25.52;11.35;;;;;;;19.79;61.13;97788.94;5038825;28;20045;-73
2021/09/01 07:10:41;;;;;;;30.42;12.02;;;;;;;19.54;61.14;97745.19;4989881;28;20375;-73
2021/09/01 07:13:14;;;;;;;26.38;11.50;;;;;;;20.06;60.83;97815.66;4988943;28;20042;-72
2021/09/01 07:15:41;;;;;;;22.77;10.85;;;;;;;19.76;60.85;97775.84;5021422;28;20045;-72
2021/09/01 07:18:11;;;;;;;27.38;12.05;;;;;;;19.54;60.92;97739.66;5039728;28;20048;-72
2021/09/01 07:20:44;;;;;;;30.70;12.02;;;;;;;19.99;61.25;97813.66;5011658;28;20049;-73
2021/09/01 07:23:10;;;;;;;25.67;12.05;;;;;;;19.63;61.36;97753.19;5022253;28;20145;-72
2021/09/01 07:25:40;;;;;;;24.67;11.98;;;;;;;19.97;61.49;97793.81;5005208;28;20173;-72
2021/09/01 07:28:28;;;;;;;26.10;12.52;;;;;;;19.98;61.65;97789.88;5023423;28;20077;-71
2021/09/01 07:30:54;;;;;;;30.88;12.93;;;;;;;19.89;61.93;97786.59;5022254;28;20065;-72
2021/09/01 07:33:23;;;;;;;28.25;13.07;;;;;;;19.85;61.84;97775.50;5029336;28;20440;-73
2021/09/01 07:35:54;;;;;;;34.47;13.88;;;;;;;19.69;62.03;97736.97;5011945;28;20041;-72
2021/09/01 07:38:21;;;;;;;24.67;12.20;;;;;;;19.86;62.12;97765.19;5005704;28;20402;-73
2021/09/01 07:40:48;;;;;;;30.20;13.27;;;;;;;20.01;62.22;97771.66;5028787;28;20576;-75
2021/09/01 07:43:26;;;;;;;31.73;13.18;;;;;;;19.89;62.21;97754.13;5004022;28;20095;-77
2021/09/01 07:46:02;;;;;;;30.38;12.43;;;;;;;19.68;62.38;97714.03;5023083;28;20048;-74
2021/09/01 07:48:31;;;;;;;26.15;12.68;;;;;;;19.81;62.01;97725.56;5006065;28;20056;-73
2021/09/01 07:51:02;;;;;;;27.50;13.55;;;;;;;19.94;61.74;97733.59;5028580;28;20152;-73
2021/09/01 07:53:35;;;;;;;36.22;13.50;;;;;;;20.38;61.85;97788.09;5003661;28;20069;-73
2021/09/01 07:56:06;;;;;;;34.60;13.82;;;;;;;20.40;61.62;97785.72;5001820;28;20041;-74
2021/09/01 07:58:33;;;;;;;30.80;13.25;;;;;;;20.30;61.38;97760.72;5020014;28;20043;-74
2021/09/01 08:01:01;;;;;;;;;;;;;;;20.48;61.47;97778.22;5015523;28;20448;-74
2021/09/01 08:03:32;;;;;;;29.27;12.45;;;;;;;20.30;61.17;97744.06;4988634;28;19925;-75
2021/09/01 08:06:04;;;;;;;25.80;12.95;;;;;;;20.51;60.67;97783.00;5004559;28;20048;-75
2021/09/01 08:08:34;;;;;;;32.72;12.23;;;;;;;20.49;60.64;97779.00;5018776;28;20057;-74
2021/09/01 08:11:01;;;;;;;26.67;12.30;;;;;;;20.28;60.76;97727.81;5003679;28;20057;-76
2021/09/01 08:13:28;;;;;;;;;;;;;;;20.57;60.74;97768.72;5021709;28;20151;-74
2021/09/01 08:15:56;;;;;;;40.63;13.52;;;;;;;20.41;60.42;97742.09;5020331;28;19925;-75
2021/09/01 08:18:23;;;;;;;41.80;15.88;;;;;;;20.23;60.70;97701.22;5005845;28;20513;-75
2021/09/01 08:20:50;;;;;;;37.97;14.15;;;;;;;20.47;60.55;97729.47;4987031;28;20428;-75
2021/09/01 08:23:18;;;;;;;34.63;13.93;;;;;;;20.25;60.61;97689.75;5003626;28;20050;-75
2021/09/01 08:25:44;;;;;;;35.05;13.32;;;;;;;20.35;60.46;97702.84;4988515;28;21065;-77
2021/09/01 08:28:11;;;;;;;32.13;13.10;;;;;;;20.39;60.37;97694.53;5024966;28;20053;-74
2021/09/01 08:30:40;;;;;;;26.98;12.27;;;;;;;20.60;60.38;97729.88;5025579;28;20057;-75
2021/09/01 08:33:07;;;;;;;31.13;13.10;;;;;;;20.47;60.17;97693.38;5008060;28;20591;-75
2021/09/01 08:35:33;;;;;;;33.20;12.23;;;;;;;20.73;60.24;97732.28;5041355;28;20049;-74
2021/09/01 08:38:00;;;;;;;33.97;13.23;;;;;;;20.75;59.89;97718.81;5023799;28;20132;-75
2021/09/01 08:40:30;;;;;;;36.53;14.38;;;;;;;20.79;59.70;97736.25;5026084;28;20045;-75
2021/09/01 08:42:59;;;;;;;34.28;14.30;;;;;;;20.52;59.69;97692.19;5026584;28;20532;-74
2021/09/01 08:45:26;;;;;;;30.88;13.73;;;;;;;20.96;59.58;97763.28;5025696;28;20123;-75
2021/09/01 08:47:56;;;;;;;28.13;13.95;;;;;;;20.92;59.83;97765.28;4996729;28;20045;-73
2021/09/01 08:50:33;;;;;;;28.48;14.82;;;;;;;20.34;59.84;97687.38;5012599;28;20041;-75
2021/09/01 08:56:28;;;;;;;;;;;;;;;20.78;60.23;97762.44;5012131;28;20044;-75
2021/09/01 08:59:21;;;;;;;29.95;14.65;;;;;;;20.69;60.19;97758.06;4994732;28;20059;-74
2021/09/01 09:01:59;;;;;;;34.47;13.68;;;;;;;20.21;60.57;97684.19;5023103;28;20453;-81
2021/09/01 09:04:38;;;;;;;36.25;13.77;;;;;;;20.54;60.46;97723.91;4991306;28;20053;-75
2021/09/01 09:07:28;;;;;;;30.30;13.95;;;;;;;20.33;60.80;97688.56;4991932;28;20053;-75
2021/09/01 09:09:56;;;;;;;33.90;14.25;;;;;;;20.80;60.85;97740.63;5003911;28;20389;-75
2021/09/01 09:12:32;;;;;;;28.60;14.55;;;;;;;20.74;60.54;97706.91;5024434;28;20057;-74
2021/09/01 09:15:02;;;;;;;33.17;14.93;;;;;;;21.08;60.03;97737.13;5015754;28;20107;-75
2021/09/01 09:17:35;;;;;;;37.53;14.52;;;;;;;21.04;59.96;97719.66;5004179;28;20771;-76
2021/09/01 09:20:07;;;;;;;29.42;13.75;;;;;;;20.82;60.31;97674.41;5002878;28;20413;-75
2021/09/01 09:22:38;;;;;;;35.15;14.85;;;;;;;20.97;59.65;97672.44;5008060;28;20111;-75
2021/09/01 09:25:13;;;;;;;36.53;15.35;;;;;;;21.43;59.75;97734.72;5038728;28;20492;-75
2021/09/01 09:28:04;;;;;;;31.85;14.85;;;;;;;21.34;59.56;97699.00;5026834;28;20041;-75
2021/09/01 09:30:42;;;;;;;36.40;14.80;;;;;;;21.65;59.31;97729.16;4992224;28;20496;-74
2021/09/01 09:33:15;;;;;;;37.40;15.52;;;;;;;21.40;59.51;97677.16;5007677;28;20191;-75
2021/09/01 09:35:54;;;;;;;28.88;13.88;;;;;;;21.27;59.59;97648.19;4991244;28;20065;-75
2021/09/01 09:38:38;;;;;;;35.28;14.63;;;;;;;21.58;58.82;97660.47;4973534;28;20048;-74
2021/09/01 09:41:23;;;;;;;35.78;14.70;;;;;;;21.90;58.52;97692.97;4992071;28;20523;-74
2021/09/01 09:44:02;;;;;;;35.88;14.13;;;;;;;21.90;57.97;97681.03;5007167;28;20053;-75
2021/09/01 09:46:47;;;;;;;31.80;13.07;;;;;;;21.80;57.80;97655.66;4993757;28;20056;-75
2021/09/01 09:49:32;;;;;;;34.17;12.93;;;;;;;22.19;56.27;97678.94;4992677;28;20335;-75
2021/09/01 09:52:15;;;;;;;36.38;11.38;;;;;;;22.63;54.87;97712.13;5031677;28;20506;-75
2021/09/01 09:54:43;;;;;;;21.98;11.20;;;;;;;22.68;54.56;97669.94;5007001;28;20049;-75
2021/09/01 09:57:11;;;;;;;;;;;;;;;23.21;53.86;97709.72;5008272;28;20386;-74
2021/09/01 09:59:52;;;;;;;33.05;12.13;;;;;;;23.09;53.41;97660.06;5039015;28;19925;-75
2021/09/01 10:02:22;;;;;;;27.92;11.77;;;;;;;23.33;53.51;97688.13;5042019;28;20068;-75
2021/09/01 10:04:59;;;;;;;26.65;11.65;;;;;;;23.25;53.68;97694.97;5023839;28;20132;-75
2021/09/01 10:07:26;;;;;;;28.45;10.80;;;;;;;22.99;54.16;97684.03;5019619;28;20523;-75
2021/09/01 10:09:53;;;;;;;;;;;;;;;23.04;54.62;97708.66;4998302;28;20131;-73
2021/09/01 10:12:19;;;;;;;27.92;10.50;;;;;;;22.97;54.33;97692.03;5005090;28;19924;-74
2021/09/01 10:15:03;;;;;;;23.95;9.85;;;;;;;23.03;54.04;97701.50;5006732;28;20042;-74
2021/09/01 10:17:39;;;;;;;21.05;8.77;;;;;;;22.51;53.13;97632.66;4991189;28;20073;-75
2021/09/01 10:20:17;;;;;;;21.30;9.23;;;;;;;22.72;53.00;97669.94;5038179;28;20079;-75
2021/09/01 10:23:03;;;;;;;21.38;9.32;;;;;;;22.58;52.46;97657.69;5018628;28;20045;-73
2021/09/01 10:25:34;;;;;;;25.97;9.27;;;;;;;22.81;52.46;97681.38;5038697;28;20132;-74
2021/09/01 10:28:34;;;;;;;26.67;9.23;;;;;;;22.61;52.67;97639.34;5028873;28;20049;-74
2021/09/01 10:31:28;;;;;;;32.80;9.52;;;;;;;22.66;52.81;97650.84;5032434;28;20061;-74
2021/09/01 10:34:08;;;;;;;20.95;8.82;;;;;;;22.65;52.56;97623.44;4991930;28;20466;-74
2021/09/01 10:36:51;;;;;;;23.02;9.77;;;;;;;22.88;52.45;97641.53;5022479;28;20497;-74
2021/09/01 10:39:37;;;;;;;22.98;9.07;;;;;;;22.71;52.01;97599.50;5016547;28;20069;-75
2021/09/01 10:42:34;;;;;;;19.80;8.77;;;;;;;23.25;52.06;97665.09;5006989;28;20049;-73
2021/09/01 10:45:05;;;;;;;24.48;8.68;;;;;;;23.27;51.51;97650.78;5039865;28;20049;-74
2021/09/01 10:48:17;;;;;;;30.08;8.82;;;;;;;23.59;51.21;97655.22;5036701;28;20430;-74
2021/09/01 10:50:51;;;;;;;29.67;8.48;;;;;;;23.36;51.22;97628.81;5005043;28;20570;-72
2021/09/01 10:53:25;;;;;;;25.40;7.97;;;;;;;23.28;50.65;97644.00;5006759;28;20048;-74
2021/09/01 10:55:58;;;;;;;20.58;7.85;;;;;;;23.22;50.56;97638.84;5005117;28;20075;-76
2021/09/01 10:58:36;;;;;;;23.45;7.80;;;;;;;23.12;50.91;97650.88;5005366;28;20046;-73
2021/09/01 11:01:11;;;;;;;20.13;7.88;;;;;;;23.02;51.19;97660.91;5036905;28;20048;-74
2021/09/01 11:03:46;;;;;;;29.65;10.57;;;;;;;22.85;51.51;97648.72;5006418;28;20520;-74
2021/09/01 11:06:23;;;;;;;27.80;9.05;;;;;;;22.90;51.51;97664.19;5020089;28;20049;-74
2021/09/01 11:09:14;;;;;;;43.53;13.23;;;;;;;22.78;51.74;97663.47;5035285;28;20135;-73
2021/09/01 11:11:57;;;;;;;33.05;10.13;;;;;;;22.69;51.84;97660.38;5006287;28;20055;-74
2021/09/01 11:14:37;;;;;;;23.90;8.90;;;;;;;22.41;51.63;97617.59;4989519;28;20136;-74
2021/09/01 11:17:08;;;;;;;28.02;10.20;;;;;;;22.55;51.65;97649.34;5001087;28;20172;-75
2021/09/01 11:19:36;;;;;;;31.02;9.65;;;;;;;22.30;51.95;97622.41;5004241;28;20320;-76
2021/09/01 11:22:14;;;;;;;26.33;9.20;;;;;;;22.61;52.18;97675.53;5018742;28;20065;-74
2021/09/01 11:24:44;;;;;;;30.08;8.95;;;;;;;22.24;52.26;97620.06;5005562;28;20041;-76
2021/09/01 11:27:14;;;;;;;30.80;10.38;;;;;;;22.18;52.40;97607.00;4988284;28;20076;-74
2021/09/01 11:29:43;;;;;;;30.27;9.80;;;;;;;22.38;52.55;97646.25;5003634;28;20057;-75
2021/09/01 11:32:22;;;;;;;29.75;9.55;;;;;;;22.32;52.74;97645.06;5002817;28;20045;-74
2021/09/01 11:35:00;;;;;;;24.35;9.07;;;;;;;22.16;52.91;97626.09;5005573;28;20224;-75
2021/09/01 11:37:30;;;;;;;32.35;9.93;;;;;;;22.32;52.98;97645.06;4979607;28;20040;-75
2021/09/01 11:40:01;;;;;;;23.60;9.25;;;;;;;22.34;52.99;97643.47;5036074;28;20076;-73
2021/09/01 11:42:36;;;;;;;19.15;8.05;;;;;;;22.00;52.96;97604.31;5002610;28;20049;-74
2021/09/01 11:45:07;;;;;;;22.08;8.10;;;;;;;22.13;52.82;97630.47;5018398;28;20049;-73
2021/09/01 11:47:40;;;;;;;21.42;6.53;;;;;;;22.28;52.79;97675.72;5019863;28;20041;-73
2021/09/01 11:50:16;;;;;;;19.75;6.65;;;;;;;22.02;52.83;97635.31;5006190;28;20050;-75
2021/09/01 11:52:53;;;;;;;18.35;6.57;;;;;;;21.83;52.81;97612.31;4980875;28;20048;-75
2021/09/01 11:55:30;;;;;;;20.45;7.78;;;;;;;22.14;52.63;97648.75;4985289;28;20056;-73
2021/09/01 11:58:13;;;;;;;20.02;7.85;;;;;;;22.03;53.40;97620.19;5022822;28;20041;-75
2021/09/01 12:00:39;;;;;;;20.15;8.13;;;;;;;21.88;53.37;97605.56;5005861;28;20691;-74
2021/09/01 12:03:10;;;;;;;28.27;8.98;;;;;;;21.86;54.08;97594.84;4991742;28;20046;-75
2021/09/01 12:05:43;;;;;;;22.50;8.60;;;;;;;21.89;54.33;97613.50;4987831;28;20148;-74